Time;durP1;ratioP1;P1;durP2;ratioP2;P2;SDS_P1;SDS_P2;PMS_P1;PMS_P2;Temp;Humidity;BMP_temperature;BMP_pressure;BME280_temperature;BME280_humidity;BME280_pressure;Samples;Min_cycle;Max_cycle;Signal;HPM_P1;HPM_P2
2021/12/24 00:00:43;;;;;;;6.80;4.63;;;6.60;99.90;;;;;;5020030;28;20174;-88
2021/12/24 00:03:19;;;;;;;6.10;4.47;;;6.50;99.90;;;;;;5020067;28;20204;-88
2021/12/24 00:05:45;;;;;;;7.20;4.20;;;6.40;99.90;;;;;;5020090;28;20170;-88
2021/12/24 00:08:11;;;;;;;7.40;5.00;;;6.40;99.90;;;;;;5020088;28;20261;-88
2021/12/24 00:10:38;;;;;;;6.57;4.43;;;6.40;99.90;;;;;;5020023;28;20729;-88
2021/12/24 00:13:10;;;;;;;5.27;4.27;;;6.30;99.90;;;;;;5019616;28;20178;-87
2021/12/24 00:37:01;;;;;;;6.63;4.37;;;5.80;99.90;;;;;;5035699;28;20165;-87
2021/12/24 00:39:27;;;;;;;7.77;4.43;;;5.80;99.90;;;;;;5035184;28;20227;-88
2021/12/24 00:41:53;;;;;;;5.80;4.13;;;5.80;99.90;;;;;;5036035;28;20178;-88
2021/12/24 00:44:19;;;;;;;5.87;4.00;;;6.00;99.90;;;;;;5038974;28;20237;-88
2021/12/24 00:46:45;;;;;;;4.97;3.70;;;6.00;99.90;;;;;;5039095;28;20212;-88
2021/12/24 00:49:11;;;;;;;7.53;3.93;;;5.90;99.90;;;;;;5038696;28;20205;-88
2021/12/24 00:56:55;;;;;;;5.87;3.80;;;5.80;99.90;;;;;;5055279;28;20196;-87
2021/12/24 00:59:21;;;;;;;6.17;4.00;;;5.90;99.90;;;;;;5038788;28;20228;-88
2021/12/24 01:01:46;;;;;;;6.37;3.97;;;5.90;99.90;;;;;;5039086;28;20226;-88
2021/12/24 01:04:12;;;;;;;5.00;3.77;;;5.80;99.90;;;;;;5055747;28;20177;-88
2021/12/24 01:06:38;;;;;;;8.07;5.57;;;5.70;99.90;;;;;;5039025;28;20238;-88
2021/12/24 01:09:05;;;;;;;12.23;6.83;;;5.70;99.90;;;;;;5038656;28;20714;-88
2021/12/24 01:11:31;;;;;;;14.43;7.93;;;5.70;99.90;;;;;;5038726;28;20184;-88
2021/12/24 01:13:59;;;;;;;18.17;9.77;;;5.70;99.90;;;;;;5031950;28;20673;-88
2021/12/24 01:16:35;;;;;;;20.10;9.50;;;5.70;99.90;;;;;;5018635;28;20181;-88
2021/12/24 01:19:14;;;;;;;14.60;7.33;;;5.70;99.90;;;;;;5018705;28;20200;-88
2021/12/24 01:24:21;;;;;;;10.17;5.57;;;5.70;99.90;;;;;;5035502;28;20176;-88
2021/12/24 01:40:37;;;;;;;9.57;4.97;;;5.60;99.90;;;;;;5035210;28;20185;-87
2021/12/24 01:43:03;;;;;;;7.00;4.70;;;5.60;99.90;;;;;;5018576;28;20181;-88
2021/12/24 01:45:34;;;;;;;6.07;4.50;;;5.70;99.90;;;;;;5018431;28;20192;-88
2021/12/24 01:48:05;;;;;;;5.80;4.07;;;5.70;99.90;;;;;;5035279;28;20212;-87
2021/12/24 01:50:42;;;;;;;5.80;3.60;;;5.70;99.90;;;;;;5018537;28;20165;-88
2021/12/24 01:53:09;;;;;;;5.33;3.23;;;5.70;99.90;;;;;;5034683;28;20165;-88
2021/12/24 01:55:38;;;;;;;5.60;3.60;;;5.70;99.90;;;;;;5034292;28;20188;-88
2021/12/24 01:58:05;;;;;;;3.73;3.00;;;5.70;99.90;;;;;;5034858;28;20203;-88
2021/12/24 02:00:36;;;;;;;7.23;3.60;;;5.70;99.90;;;;;;5035181;28;20181;-88
2021/12/24 02:03:03;;;;;;;6.13;3.23;;;5.80;99.90;;;;;;5035712;28;20191;-88
2021/12/24 02:05:31;;;;;;;4.77;3.20;;;5.80;99.90;;;;;;5038624;28;20272;-88
2021/12/24 02:07:58;;;;;;;4.50;3.20;;;5.80;99.90;;;;;;5038511;28;20213;-88
2021/12/24 02:10:24;;;;;;;4.37;2.73;;;5.90;99.90;;;;;;5038352;28;20180;-88
2021/12/24 02:12:51;;;;;;;4.57;3.20;;;5.90;99.90;;;;;;5038493;28;20227;-88
2021/12/24 02:15:39;;;;;;;4.30;2.60;;;6.00;99.90;;;;;;5039710;28;20209;-88
2021/12/24 02:29:10;;;;;;;3.53;2.53;;;6.50;99.90;;;;;;5057450;28;20243;-88
2021/12/24 02:31:36;;;;;;;5.27;2.90;;;6.50;99.90;;;;;;5040799;28;20422;-88
2021/12/24 02:34:02;;;;;;;3.40;2.40;;;6.50;99.90;;;;;;5041521;28;20611;-88
2021/12/24 02:36:29;;;;;;;3.97;2.47;;;6.40;99.90;;;;;;5041271;28;20181;-88
2021/12/24 02:38:55;;;;;;;3.03;2.50;;;6.40;99.90;;;;;;5041213;28;20262;-88
2021/12/24 02:41:22;;;;;;;3.23;2.43;;;6.30;99.90;;;;;;5057706;28;20177;-88
2021/12/24 02:43:49;;;;;;;6.20;2.97;;;6.30;99.90;;;;;;5041145;28;20184;-88
2021/12/24 02:46:32;;;;;;;3.80;2.97;;;6.40;99.90;;;;;;5040953;28;20180;-88
2021/12/24 02:49:05;;;;;;;4.40;2.40;;;6.40;99.90;;;;;;5041214;28;20197;-87
2021/12/24 02:54:22;;;;;;;4.03;2.90;;;6.30;99.90;;;;;;5057051;28;20280;-88
2021/12/24 02:57:09;;;;;;;4.87;3.10;;;6.20;99.90;;;;;;5040949;28;20187;-88
2021/12/24 02:59:47;;;;;;;6.17;3.43;;;6.20;99.90;;;;;;5040883;28;20200;-87
2021/12/24 03:02:13;;;;;;;3.80;2.83;;;6.10;99.90;;;;;;5040989;28;20165;-87
2021/12/24 03:04:39;;;;;;;4.47;2.70;;;6.10;99.90;;;;;;5040741;28;20250;-88
2021/12/24 03:07:05;;;;;;;5.50;3.00;;;6.10;99.90;;;;;;5040774;28;20177;-88
2021/12/24 03:09:31;;;;;;;4.57;2.57;;;6.00;99.90;;;;;;5057030;28;20291;-88
2021/12/24 03:11:58;;;;;;;3.83;2.83;;;6.10;99.90;;;;;;5040498;28;20215;-88
2021/12/24 03:14:24;;;;;;;3.23;2.47;;;6.10;99.90;;;;;;5029721;28;20213;-88
2021/12/24 03:16:57;;;;;;;3.73;2.87;;;6.10;99.90;;;;;;5020602;28;20245;-87
2021/12/24 03:19:29;;;;;;;2.50;2.30;;;6.20;99.90;;;;;;5021080;28;20277;-88
2021/12/24 03:25:08;;;;;;;2.80;2.50;;;6.30;99.90;;;;;;5037016;28;20173;-88
2021/12/24 03:27:34;;;;;;;5.03;2.73;;;6.30;99.90;;;;;;5020255;28;20227;-88
2021/12/24 03:30:00;;;;;;;3.70;2.60;;;6.30;99.90;;;;;;5020666;28;20182;-88
2021/12/24 03:32:26;;;;;;;4.13;2.67;;;6.40;99.90;;;;;;5020384;28;20261;-88
2021/12/24 03:34:53;;;;;;;4.43;2.87;;;6.40;99.90;;;;;;5020436;28;20206;-88
2021/12/24 03:37:19;;;;;;;4.30;2.47;;;6.40;99.90;;;;;;5020417;28;20265;-88
2021/12/24 03:39:45;;;;;;;2.90;2.50;;;6.40;99.90;;;;;;5020345;28;20232;-88
2021/12/24 03:42:11;;;;;;;5.97;3.10;;;6.40;99.90;;;;;;5020846;28;20268;-88
2021/12/24 03:44:44;;;;;;;3.20;2.30;;;6.40;99.90;;;;;;5020564;28;20231;-88
2021/12/24 03:49:45;;;;;;;3.93;2.30;;;6.40;99.90;;;;;;5036407;28;20202;-88
2021/12/24 03:54:56;;;;;;;4.43;2.50;;;6.40;99.90;;;;;;5036339;28;20198;-88
2021/12/24 03:57:44;;;;;;;3.30;2.40;;;6.30;99.90;;;;;;5019953;28;20169;-88
2021/12/24 04:00:26;;;;;;;2.43;2.00;;;6.30;99.90;;;;;;5037256;28;20257;-88
2021/12/24 04:03:11;;;;;;;3.60;2.63;;;6.20;99.90;;;;;;5039241;28;20385;-88
2021/12/24 04:05:40;;;;;;;3.40;2.40;;;6.10;99.90;;;;;;5037028;28;20180;-88
2021/12/24 04:08:30;;;;;;;4.17;2.90;;;6.10;99.90;;;;;;4994117;28;20206;-88
2021/12/24 04:11:08;;;;;;;2.77;2.30;;;6.10;99.90;;;;;;5021329;28;20255;-88
2021/12/24 04:13:37;;;;;;;2.77;2.10;;;6.00;99.90;;;;;;5020205;28;20213;-88
2021/12/24 04:16:04;;;;;;;4.27;2.60;;;6.00;99.90;;;;;;5019579;28;20181;-88
2021/12/24 04:26:42;;;;;;;5.13;3.40;;;6.00;99.90;;;;;;5035416;28;20179;-88
2021/12/24 04:29:09;;;;;;;3.90;3.07;;;6.00;99.90;;;;;;5019338;28;20197;-88
2021/12/24 04:34:36;;;;;;;2.90;2.60;;;6.00;99.90;;;;;;5052960;28;20198;-88
2021/12/24 05:05:00;;;;;;;3.83;2.83;;;6.10;99.90;;;;;;5051899;28;20270;-88
2021/12/24 05:09:53;;;;;;;6.00;3.53;;;6.10;99.90;;;;;;5051767;28;20232;-87
2021/12/24 05:12:19;;;;;;;4.10;3.50;;;6.10;99.90;;;;;;5035324;28;20178;-88
2021/12/24 05:14:45;;;;;;;5.07;3.40;;;6.00;99.90;;;;;;5060891;28;20204;-88
2021/12/24 05:17:34;;;;;;;4.57;3.77;;;6.00;99.90;;;;;;5075335;28;20236;-88
2021/12/24 05:23:13;;;;;;;7.33;4.70;;;6.00;99.90;;;;;;5075079;28;20193;-88
2021/12/24 05:25:46;;;;;;;14.63;8.37;;;6.00;99.90;;;;;;5057003;28;20215;-88
2021/12/24 05:28:13;;;;;;;8.87;5.40;;;6.00;99.90;;;;;;5057920;28;20200;-88
2021/12/24 05:30:40;;;;;;;7.23;4.67;;;6.00;99.90;;;;;;5058811;28;20226;-88
2021/12/24 05:33:11;;;;;;;7.17;4.77;;;6.10;99.90;;;;;;5058664;28;20185;-87
2021/12/24 05:35:37;;;;;;;6.67;4.00;;;6.10;99.90;;;;;;5058220;28;20212;-88
2021/12/24 05:38:03;;;;;;;6.07;3.87;;;6.10;99.90;;;;;;5059138;28;20203;-88
2021/12/24 05:40:29;;;;;;;7.90;3.90;;;6.10;99.90;;;;;;5062611;28;20220;-88
2021/12/24 05:42:55;;;;;;;5.03;3.53;;;6.10;99.90;;;;;;5062416;28;20172;-87
2021/12/24 05:45:23;;;;;;;5.90;4.10;;;6.10;99.90;;;;;;5044075;28;20188;-88
2021/12/24 05:48:22;;;;;;;4.73;3.50;;;6.20;99.90;;;;;;5046420;28;20192;-88
2021/12/24 05:51:43;;;;;;;7.77;4.30;;;6.20;99.90;;;;;;5042401;28;20177;-88
2021/12/24 05:54:32;;;;;;;5.37;3.63;;;6.10;99.90;;;;;;5045567;28;20262;-88
2021/12/24 05:56:59;;;;;;;5.10;3.50;;;6.10;99.90;;;;;;5042345;28;20260;-88
2021/12/24 05:59:26;;;;;;;5.43;3.33;;;6.10;99.90;;;;;;5042507;28;20204;-88
2021/12/24 06:01:52;;;;;;;3.70;2.80;;;6.10;99.90;;;;;;5042235;28;20173;-88
2021/12/24 06:04:18;;;;;;;5.00;3.37;;;6.10;99.90;;;;;;5058479;28;20226;-87
2021/12/24 06:06:44;;;;;;;3.50;3.10;;;6.10;99.90;;;;;;5041681;28;20176;-88
2021/12/24 06:09:23;;;;;;;4.97;3.30;;;6.10;99.90;;;;;;5041723;28;20197;-88
2021/12/24 06:11:49;;;;;;;4.80;3.00;;;6.10;99.90;;;;;;5042292;28;20204;-88
2021/12/24 06:14:19;;;;;;;4.77;3.30;;;6.20;99.90;;;;;;5041294;28;20239;-88
2021/12/24 06:16:51;;;;;;;5.60;2.67;;;6.20;99.90;;;;;;5041884;28;20184;-88
2021/12/24 06:19:43;;;;;;;4.13;2.47;;;6.20;99.90;;;;;;5041862;28;20224;-88
2021/12/24 06:22:10;;;;;;;4.17;2.83;;;6.20;99.90;;;;;;5041669;28;20170;-88
2021/12/24 06:24:36;;;;;;;3.13;2.43;;;6.10;99.90;;;;;;5041996;28;20186;-88
2021/12/24 06:27:05;;;;;;;4.57;3.20;;;6.10;99.90;;;;;;5041141;28;20283;-88
2021/12/24 06:29:31;;;;;;;4.57;3.40;;;6.10;99.90;;;;;;5041843;28;20243;-88
2021/12/24 06:31:57;;;;;;;2.90;2.50;;;6.10;99.90;;;;;;5041302;28;20326;-88
2021/12/24 06:34:23;;;;;;;5.47;2.43;;;6.10;99.90;;;;;;5041495;28;20677;-88
2021/12/24 06:36:51;;;;;;;3.23;2.63;;;6.10;99.90;;;;;;5043951;28;20237;-88
2021/12/24 06:39:17;;;;;;;4.13;2.80;;;6.20;99.90;;;;;;5041182;28;20310;-88
2021/12/24 06:41:44;;;;;;;2.80;2.60;;;6.20;99.90;;;;;;5041368;28;20208;-88
2021/12/24 06:44:11;;;;;;;2.93;2.63;;;6.20;99.90;;;;;;5041346;28;20198;-88
2021/12/24 06:46:40;;;;;;;13.30;8.97;;;6.10;99.90;;;;;;5057663;28;20256;-87
2021/12/24 06:49:06;;;;;;;8.30;5.87;;;6.10;99.90;;;;;;5041621;28;20291;-88
2021/12/24 06:51:32;;;;;;;4.87;3.57;;;6.10;99.90;;;;;;5061329;28;20182;-88
2021/12/24 06:53:58;;;;;;;5.90;3.77;;;6.10;99.90;;;;;;5052356;28;20292;-88
2021/12/24 06:56:56;;;;;;;5.47;3.97;;;6.10;99.90;;;;;;5040680;28;20179;-88
2021/12/24 06:59:21;;;;;;;7.10;5.37;;;6.00;99.90;;;;;;5040954;28;20250;-88
2021/12/24 07:02:08;;;;;;;7.07;5.30;;;6.00;99.90;;;;;;5041047;28;20208;-88
2021/12/24 07:04:34;;;;;;;8.43;5.27;;;6.00;99.90;;;;;;5040709;28;20180;-88
2021/12/24 07:07:00;;;;;;;6.17;4.80;;;6.00;99.90;;;;;;5040545;28;20188;-88
2021/12/24 07:09:26;;;;;;;16.00;10.83;;;6.00;99.90;;;;;;5040371;28;20219;-83
2021/12/24 07:11:52;;;;;;;6.23;4.30;;;6.00;99.90;;;;;;5057453;28;20261;-88
2021/12/24 07:14:18;;;;;;;4.93;3.43;;;6.10;99.90;;;;;;5040857;28;20216;-88
2021/12/24 07:16:44;;;;;;;6.23;3.83;;;6.10;99.90;;;;;;5040543;28;20170;-88
2021/12/24 07:19:10;;;;;;;9.90;6.47;;;6.10;99.90;;;;;;5040822;28;20207;-88
2021/12/24 07:21:36;;;;;;;8.00;6.20;;;6.10;99.90;;;;;;5057413;28;20182;-88
2021/12/24 07:24:06;;;;;;;11.60;7.40;;;6.10;99.90;;;;;;5040715;28;20648;-88
2021/12/24 07:26:32;;;;;;;22.67;10.23;;;6.10;99.90;;;;;;5040569;28;20230;-88
2021/12/24 07:28:58;;;;;;;11.37;7.57;;;6.10;99.90;;;;;;5040457;28;20231;-88
2021/12/24 07:31:24;;;;;;;7.93;4.73;;;6.10;99.90;;;;;;5039825;28;20641;-88
2021/12/24 07:33:50;;;;;;;6.10;4.10;;;6.20;99.90;;;;;;5040328;28;20208;-88
2021/12/24 07:36:16;;;;;;;4.63;3.43;;;6.20;99.90;;;;;;5040012;28;20628;-88
2021/12/24 07:38:42;;;;;;;4.13;3.03;;;6.30;99.90;;;;;;5039977;28;20296;-88
2021/12/24 07:41:08;;;;;;;5.67;3.83;;;6.30;99.90;;;;;;5040162;28;20189;-88
2021/12/24 07:43:34;;;;;;;6.70;4.97;;;6.30;99.90;;;;;;5037108;28;20190;-88
2021/12/24 07:46:00;;;;;;;6.47;5.00;;;6.40;99.90;;;;;;5020368;28;20181;-88
2021/12/24 07:48:31;;;;;;;4.87;4.37;;;6.40;99.90;;;;;;5036494;28;20205;-88
2021/12/24 07:53:26;;;;;;;4.67;3.53;;;6.40;99.90;;;;;;5036853;28;20187;-88
2021/12/24 07:55:54;;;;;;;11.47;7.23;;;6.40;99.90;;;;;;5020005;28;20701;-88
2021/12/24 07:58:20;;;;;;;12.77;9.33;;;6.40;99.90;;;;;;5019897;28;20228;-88
2021/12/24 08:00:46;;;;;;;14.17;9.83;;;6.40;99.90;;;;;;5035919;28;20179;-88
2021/12/24 08:03:13;;;;;;;11.03;7.50;;;6.40;99.90;;;;;;5019961;28;20277;-88
2021/12/24 08:05:41;;;;;;;8.57;4.90;;;6.40;99.90;;;;;;5019816;28;20181;-88
2021/12/24 08:08:09;;;;;;;9.07;5.87;;;6.40;99.90;;;;;;5019753;28;20248;-88
2021/12/24 08:10:38;;;;;;;9.83;6.03;;;6.40;99.90;;;;;;5045673;28;20182;-88
2021/12/24 08:13:06;;;;;;;6.37;4.30;;;6.30;99.90;;;;;;5076879;28;20172;-88
2021/12/24 08:15:36;;;;;;;4.97;3.70;;;6.30;99.90;;;;;;5053355;28;20201;-88
2021/12/24 08:18:03;;;;;;;5.77;3.90;;;6.30;99.90;;;;;;5054104;28;20241;-88
2021/12/24 08:20:31;;;;;;;6.50;4.17;;;6.20;99.90;;;;;;5031846;28;20181;-88
2021/12/24 08:22:57;;;;;;;7.30;4.13;;;6.20;99.90;;;;;;5064737;28;20276;-89
2021/12/24 08:25:24;;;;;;;5.07;4.10;;;6.20;99.90;;;;;;5039369;28;20310;-90
2021/12/24 08:27:50;;;;;;;5.17;3.67;;;6.20;99.90;;;;;;5038806;28;20203;-89
2021/12/24 08:30:16;;;;;;;6.53;4.43;;;6.20;99.90;;;;;;5039701;28;20177;-88
2021/12/24 08:32:42;;;;;;;6.50;4.53;;;6.20;99.90;;;;;;5039198;28;20188;-87
2021/12/24 08:35:15;;;;;;;7.83;5.53;;;6.20;99.90;;;;;;5048387;28;20208;-87
2021/12/24 08:37:42;;;;;;;7.67;5.77;;;6.20;99.90;;;;;;5074122;28;20180;-87
2021/12/24 08:40:09;;;;;;;8.23;5.30;;;6.20;99.90;;;;;;5037972;28;20318;-87
2021/12/24 08:42:35;;;;;;;9.47;5.97;;;6.20;99.90;;;;;;5041686;28;20245;-88
2021/12/24 08:45:01;;;;;;;9.93;6.13;;;6.20;99.90;;;;;;5034496;28;20183;-87
2021/12/24 08:47:27;;;;;;;10.77;5.70;;;6.30;99.90;;;;;;5068209;28;20187;-87
2021/12/24 08:49:53;;;;;;;7.30;5.37;;;6.30;99.90;;;;;;5042754;28;20345;-87
2021/12/24 08:52:19;;;;;;;7.33;5.47;;;6.30;99.90;;;;;;5037968;28;20268;-88
2021/12/24 08:54:45;;;;;;;8.27;6.10;;;6.30;99.90;;;;;;5044393;28;20232;-87
2021/12/24 08:57:11;;;;;;;9.20;5.53;;;6.30;99.90;;;;;;5043317;28;20198;-88
2021/12/24 08:59:36;;;;;;;6.50;5.00;;;6.30;99.90;;;;;;5033590;28;20919;-88
2021/12/24 09:02:03;;;;;;;6.77;5.30;;;6.40;99.90;;;;;;5053211;28;20186;-88
2021/12/24 09:04:30;;;;;;;9.93;6.80;;;6.40;99.90;;;;;;5033625;28;20184;-88
2021/12/24 09:06:56;;;;;;;5.87;4.67;;;6.40;99.90;;;;;;5052968;28;20183;-87
2021/12/24 09:09:22;;;;;;;4.60;3.50;;;6.50;99.90;;;;;;5036882;28;20281;-88
2021/12/24 09:11:49;;;;;;;4.07;3.57;;;6.50;99.90;;;;;;5033286;28;20182;-88
2021/12/24 09:14:17;;;;;;;5.00;4.33;;;6.50;99.90;;;;;;5051315;28;20297;-87
2021/12/24 09:16:45;;;;;;;7.23;6.27;;;6.50;99.90;;;;;;5042033;28;20180;-87
2021/12/24 09:19:15;;;;;;;6.70;4.60;;;6.50;99.90;;;;;;5037722;28;20197;-89
2021/12/24 09:21:41;;;;;;;6.60;4.37;;;6.50;99.90;;;;;;5039078;28;20165;-87
2021/12/24 09:24:08;;;;;;;5.03;3.90;;;6.40;99.90;;;;;;5037584;28;20177;-88
2021/12/24 09:26:38;;;;;;;5.77;4.50;;;6.40;99.90;;;;;;5053804;28;20213;-87
2021/12/24 09:29:09;;;;;;;5.80;4.47;;;6.40;99.90;;;;;;5045301;28;20192;-88
2021/12/24 09:31:39;;;;;;;7.43;5.63;;;6.40;99.90;;;;;;5038514;28;20176;-88
2021/12/24 09:34:07;;;;;;;7.20;5.37;;;6.40;99.90;;;;;;5039857;28;20201;-88
2021/12/24 09:36:33;;;;;;;9.03;5.10;;;6.40;99.90;;;;;;4998712;28;20233;-88
2021/12/24 09:39:03;;;;;;;9.13;6.33;;;6.50;99.90;;;;;;5043335;28;20303;-88
2021/12/24 09:41:40;;;;;;;10.40;6.93;;;6.50;99.90;;;;;;5028759;28;20243;-87
2021/12/24 09:44:06;;;;;;;11.10;6.50;;;6.50;99.90;;;;;;5034980;28;20278;-88
2021/12/24 09:46:33;;;;;;;10.40;5.83;;;6.50;99.90;;;;;;5047947;28;20184;-87
2021/12/24 09:48:59;;;;;;;9.93;6.90;;;6.50;99.90;;;;;;5041665;28;20237;-88
2021/12/24 09:51:26;;;;;;;14.00;8.83;;;6.50;99.90;;;;;;5038245;28;20232;-88
2021/12/24 09:53:54;;;;;;;14.23;8.60;;;6.50;99.90;;;;;;5050759;28;20241;-88
2021/12/24 09:56:21;;;;;;;11.17;6.83;;;6.50;99.90;;;;;;5043665;28;20760;-88
2021/12/24 09:58:48;;;;;;;15.27;8.83;;;6.50;99.90;;;;;;5057667;28;20195;-88
2021/12/24 10:02:08;;;;;;;11.43;7.17;;;6.60;99.90;;;;;;5033562;28;20174;-87
2021/12/24 10:04:43;;;;;;;8.73;5.80;;;6.50;99.90;;;;;;5039035;28;20193;-88
2021/12/24 10:07:12;;;;;;;15.00;9.27;;;6.50;99.90;;;;;;5059749;28;20268;-87
2021/12/24 10:09:49;;;;;;;16.93;11.13;;;6.50;99.90;;;;;;5052268;28;20201;-88
2021/12/24 10:12:22;;;;;;;18.70;11.63;;;6.60;99.90;;;;;;5053082;28;20574;-80
2021/12/24 10:14:59;;;;;;;12.77;8.77;;;6.60;99.90;;;;;;5051273;28;20215;-82
2021/12/24 10:17:30;;;;;;;9.70;6.60;;;6.70;99.90;;;;;;5037684;28;20181;-87
2021/12/24 10:19:59;;;;;;;12.43;6.83;;;6.80;99.90;;;;;;5056800;28;20211;-87
2021/12/24 10:22:25;;;;;;;11.40;6.77;;;6.80;99.90;;;;;;5049664;28;20181;-88
2021/12/24 10:25:10;;;;;;;10.90;7.33;;;6.80;99.90;;;;;;5038293;28;20191;-87
2021/12/24 10:27:38;;;;;;;12.07;7.33;;;6.80;99.90;;;;;;5037819;28;20196;-87
2021/12/24 10:30:18;;;;;;;12.23;8.37;;;6.80;99.90;;;;;;5053261;28;20261;-88
2021/12/24 10:32:44;;;;;;;13.63;8.40;;;6.80;99.90;;;;;;5053587;28;20240;-87
2021/12/24 10:35:30;;;;;;;10.60;7.67;;;6.80;99.90;;;;;;5049871;28;20197;-87
2021/12/24 10:38:11;;;;;;;11.37;8.23;;;6.80;99.90;;;;;;5043386;28;20256;-87
2021/12/24 10:40:52;;;;;;;12.27;7.13;;;6.80;99.90;;;;;;5063640;28;20180;-87
2021/12/24 10:43:29;;;;;;;12.07;6.87;;;6.80;99.90;;;;;;5047046;28;20181;-87
2021/12/24 10:46:22;;;;;;;9.37;6.63;;;6.80;99.90;;;;;;5064034;28;20177;-87
2021/12/24 10:49:18;;;;;;;10.33;6.47;;;6.80;99.90;;;;;;5049096;28;20193;-87
2021/12/24 10:52:13;;;;;;;9.67;6.23;;;6.80;99.90;;;;;;5048787;28;20205;-88
2021/12/24 10:54:57;;;;;;;7.93;6.43;;;6.80;99.90;;;;;;5045648;28;20205;-87
2021/12/24 10:57:29;;;;;;;9.30;6.63;;;6.80;99.90;;;;;;5063294;28;20184;-88
2021/12/24 10:59:58;;;;;;;9.33;6.37;;;6.80;99.90;;;;;;5053451;28;20228;-87
2021/12/24 11:02:33;;;;;;;17.63;10.87;;;6.80;99.90;;;;;;5051394;28;20185;-88
2021/12/24 11:05:00;;;;;;;19.93;14.20;;;6.80;99.90;;;;;;5052995;28;20187;-88
2021/12/24 11:07:46;;;;;;;16.50;11.57;;;6.80;99.90;;;;;;5061039;28;20275;-87
2021/12/24 11:10:16;;;;;;;19.13;12.00;;;6.90;99.90;;;;;;5060987;28;20165;-88
2021/12/24 11:12:48;;;;;;;18.90;11.50;;;6.90;99.90;;;;;;5060790;28;20182;-88
2021/12/24 11:15:36;;;;;;;15.17;11.13;;;6.90;99.90;;;;;;5039520;28;20209;-88
2021/12/24 11:18:07;;;;;;;11.57;8.80;;;6.90;99.90;;;;;;5037275;28;20198;-88
2021/12/24 11:20:33;;;;;;;9.77;6.80;;;6.90;99.90;;;;;;5037641;28;20220;-88
2021/12/24 11:23:06;;;;;;;9.50;7.33;;;6.90;99.90;;;;;;5053824;28;20268;-88
2021/12/24 11:25:41;;;;;;;11.70;7.10;;;6.90;99.90;;;;;;5053849;28;20173;-88
2021/12/24 11:28:08;;;;;;;9.13;5.80;;;6.80;99.90;;;;;;5053706;28;20205;-88
2021/12/24 11:30:38;;;;;;;6.80;4.43;;;6.90;99.90;;;;;;5053793;28;20181;-88
2021/12/24 11:33:04;;;;;;;5.17;4.00;;;6.90;99.90;;;;;;5053975;28;20178;-88
2021/12/24 11:35:31;;;;;;;5.73;4.90;;;7.00;99.90;;;;;;5052259;28;20292;-87
2021/12/24 11:37:59;;;;;;;7.53;5.30;;;7.00;99.90;;;;;;5064061;28;20210;-88
2021/12/24 11:40:26;;;;;;;5.63;4.27;;;7.10;99.90;;;;;;5059980;28;20192;-88
2021/12/24 11:43:04;;;;;;;6.27;4.40;;;7.10;99.90;;;;;;5051417;28;20173;-87
2021/12/24 11:45:32;;;;;;;5.23;4.20;;;7.20;99.90;;;;;;5044220;28;20210;-87
2021/12/24 11:47:59;;;;;;;7.90;5.83;;;7.30;99.90;;;;;;5060018;28;20224;-88
2021/12/24 11:50:26;;;;;;;8.83;7.13;;;7.30;99.90;;;;;;5060034;28;20211;-88
2021/12/24 11:52:57;;;;;;;9.83;7.27;;;7.30;99.90;;;;;;5056740;28;20249;-87
2021/12/24 11:55:25;;;;;;;11.60;7.50;;;7.40;99.90;;;;;;5059577;28;20213;-88
2021/12/24 11:58:02;;;;;;;13.13;7.67;;;7.50;99.90;;;;;;5059970;28;20172;-88
2021/12/24 12:00:36;;;;;;;10.30;7.40;;;7.50;99.90;;;;;;5059840;28;20175;-87
2021/12/24 12:03:02;;;;;;;8.03;6.53;;;7.50;99.90;;;;;;5059833;28;20173;-87
2021/12/24 12:05:46;;;;;;;9.70;6.80;;;7.50;99.90;;;;;;5051662;28;20181;-87
2021/12/24 12:08:25;;;;;;;10.23;7.47;;;7.50;99.90;;;;;;5059650;28;20197;-88
2021/12/24 12:10:55;;;;;;;10.77;7.63;;;7.60;99.90;;;;;;5060027;28;20177;-88
2021/12/24 12:17:24;;;;;;;12.07;8.60;;;7.50;99.90;;;;;;5055802;28;20173;-88
2021/12/24 12:19:59;;;;;;;10.73;8.50;;;7.50;99.90;;;;;;5041995;28;20246;-87
2021/12/24 12:25:47;;;;;;;7.50;6.50;;;7.50;99.90;;;;;;5056402;28;20170;-87
2021/12/24 12:28:15;;;;;;;5.20;4.63;;;7.60;99.90;;;;;;5055753;28;20269;-88
2021/12/24 12:30:50;;;;;;;5.03;4.53;;;7.60;99.90;;;;;;5039276;28;20267;-88
2021/12/24 12:33:24;;;;;;;7.43;5.53;;;7.60;99.90;;;;;;5039513;28;20227;-88
2021/12/24 12:35:53;;;;;;;8.50;5.60;;;7.60;99.90;;;;;;5039029;28;20204;-87
2021/12/24 12:42:07;;;;;;;12.13;8.17;;;7.60;99.90;;;;;;5073632;28;20310;-87
2021/12/24 12:44:34;;;;;;;11.30;7.97;;;7.70;99.90;;;;;;5067198;28;20185;-88
2021/12/24 12:47:22;;;;;;;5.93;4.60;;;7.70;99.90;;;;;;5058415;28;20207;-88
2021/12/24 12:49:51;;;;;;;6.63;4.70;;;7.70;99.90;;;;;;5043226;28;20212;-88
2021/12/24 12:52:35;;;;;;;8.17;6.67;;;7.80;99.90;;;;;;5108392;27;20555;-33
2021/12/24 12:55:02;;;;;;;6.93;5.17;;;7.80;99.90;;;;;;5104684;28;20203;-35
2021/12/24 12:57:28;;;;;;;8.07;5.83;;;7.80;99.90;;;;;;5090086;28;20183;-34
2021/12/24 13:00:22;;;;;;;9.40;5.70;;;7.80;99.90;;;;;;5097769;28;20172;-34
2021/12/24 13:03:06;;;;;;;7.60;5.07;;;7.90;99.90;;;;;;5107257;28;20210;-35
2021/12/24 13:05:41;;;;;;;7.77;4.90;;;7.90;99.90;;;;;;5126551;28;20195;-42
2021/12/24 13:08:14;;;;;;;7.40;5.80;;;7.90;99.90;;;;;;5120713;28;20175;-42
2021/12/24 13:10:40;;;;;;;9.93;6.20;;;7.90;99.90;;;;;;5119856;28;20202;-42
2021/12/24 13:13:07;;;;;;;8.90;6.13;;;7.90;99.90;;;;;;5104067;28;20203;-42
2021/12/24 13:15:46;;;;;;;9.63;6.00;;;7.90;99.90;;;;;;5106826;28;20254;-40
2021/12/24 13:18:30;;;;;;;6.40;4.60;;;8.00;99.90;;;;;;5115776;28;20168;-44
2021/12/24 13:23:37;;;;;;;5.43;3.77;;;8.00;99.90;;;;;;5124319;28;20179;-41
2021/12/24 13:26:18;;;;;;;4.27;3.50;;;7.90;99.90;;;;;;5114516;28;20175;-43
2021/12/24 13:29:17;;;;;;;5.00;4.07;;;8.00;99.90;;;;;;5115860;28;20262;-42
2021/12/24 13:31:53;;;;;;;8.90;5.50;;;8.00;99.90;;;;;;5083750;28;20583;-42
2021/12/24 13:34:20;;;;;;;7.50;4.40;;;8.00;99.90;;;;;;5105208;28;20202;-39
2021/12/24 13:36:46;;;;;;;6.73;4.80;;;7.90;99.90;;;;;;5103115;28;20184;-42
2021/12/24 13:39:15;;;;;;;6.43;4.43;;;7.90;99.90;;;;;;5110403;28;20206;-40
2021/12/24 13:41:42;;;;;;;5.33;3.90;;;7.90;99.90;;;;;;5104272;28;20716;-42
2021/12/24 13:44:21;;;;;;;6.90;4.27;;;7.90;99.90;;;;;;5107471;28;20200;-42
2021/12/24 13:47:27;;;;;;;6.00;3.90;;;7.90;99.90;;;;;;5112808;28;20182;-39
2021/12/24 13:55:28;;;;;;;8.90;4.80;;;8.00;99.90;;;;;;5123528;28;20191;-40
2021/12/24 13:57:57;;;;;;;8.30;5.73;;;8.00;99.90;;;;;;5112147;28;20167;-41
2021/12/24 14:00:24;;;;;;;32.10;16.60;;;8.00;99.90;;;;;;5117896;28;20222;-42
2021/12/24 14:02:55;;;;;;;28.67;15.17;;;8.00;99.90;;;;;;5112478;28;20172;-42
2021/12/24 14:05:21;;;;;;;21.43;11.77;;;8.00;99.90;;;;;;5091484;28;20277;-42
2021/12/24 14:08:06;;;;;;;13.57;9.07;;;8.00;99.90;;;;;;5097510;28;20176;-42
2021/12/24 14:10:32;;;;;;;12.00;8.87;;;8.00;99.90;;;;;;5087287;28;20196;-42
2021/12/24 14:13:05;;;;;;;11.07;7.80;;;8.00;99.90;;;;;;5097430;28;20172;-42
2021/12/24 14:15:42;;;;;;;10.40;7.97;;;8.00;99.90;;;;;;5085707;28;20196;-42
2021/12/24 14:18:43;;;;;;;9.17;7.40;;;8.00;99.90;;;;;;5107052;28;20164;-42
2021/12/24 14:24:12;;;;;;;5.20;4.07;;;8.00;99.90;;;;;;5099134;28;20201;-43
2021/12/24 14:26:58;;;;;;;4.50;3.27;;;8.00;99.90;;;;;;5102062;28;20180;-43
2021/12/24 14:29:37;;;;;;;5.53;3.80;;;8.10;99.90;;;;;;5072003;28;20196;-43
2021/12/24 14:32:26;;;;;;;14.07;8.27;;;8.00;99.90;;;;;;5055699;28;20212;-42
2021/12/24 14:34:55;;;;;;;21.40;11.97;;;8.10;99.90;;;;;;5098779;28;20231;-43
2021/12/24 14:37:36;;;;;;;8.43;5.40;;;8.00;99.90;;;;;;5085116;27;20184;-42
2021/12/24 14:40:07;;;;;;;6.77;4.30;;;8.00;99.90;;;;;;5101331;28;20179;-44
2021/12/24 14:43:04;;;;;;;3.87;3.30;;;8.00;99.90;;;;;;5098631;28;20652;-42
2021/12/24 14:45:39;;;;;;;4.33;3.40;;;8.00;99.90;;;;;;5081927;28;20234;-42
2021/12/24 14:48:26;;;;;;;4.10;3.60;;;8.00;99.90;;;;;;5086877;28;20172;-43
2021/12/24 14:51:03;;;;;;;8.17;4.73;;;7.90;99.90;;;;;;5082420;28;20293;-42
2021/12/24 14:53:36;;;;;;;5.90;4.60;;;7.90;99.90;;;;;;5101885;28;20168;-42
2021/12/24 14:56:05;;;;;;;5.83;4.90;;;7.90;99.90;;;;;;5091614;28;20192;-43
2021/12/24 14:58:38;;;;;;;8.97;6.13;;;7.80;99.90;;;;;;5090452;28;20187;-42
2021/12/24 15:01:14;;;;;;;6.13;4.43;;;7.80;99.90;;;;;;5093196;28;20183;-44
2021/12/24 15:03:43;;;;;;;4.83;3.10;;;7.80;99.90;;;;;;5073850;28;20170;-43
2021/12/24 15:06:31;;;;;;;4.17;3.10;;;7.70;99.90;;;;;;5089130;28;20184;-42
2021/12/24 15:08:59;;;;;;;6.13;4.57;;;7.70;99.90;;;;;;5093213;28;20251;-42
2021/12/24 15:11:32;;;;;;;5.63;4.73;;;7.70;99.90;;;;;;5074475;28;20204;-42
2021/12/24 15:14:01;;;;;;;5.17;3.90;;;7.60;99.90;;;;;;5088687;28;20200;-42
2021/12/24 15:16:33;;;;;;;4.00;2.70;;;7.50;99.90;;;;;;5091574;28;20181;-42
2021/12/24 15:19:01;;;;;;;9.27;5.63;;;7.50;99.90;;;;;;5091493;28;20172;-43
2021/12/24 15:21:30;;;;;;;7.47;5.10;;;7.50;99.90;;;;;;5074322;28;20184;-42
2021/12/24 15:23:58;;;;;;;6.80;4.60;;;7.40;99.90;;;;;;5072052;28;20184;-42
2021/12/24 15:26:25;;;;;;;4.83;3.33;;;7.40;99.90;;;;;;5091057;28;20187;-43
2021/12/24 15:28:53;;;;;;;4.70;3.17;;;7.40;99.90;;;;;;5091378;28;20187;-40
2021/12/24 15:31:20;;;;;;;4.37;2.80;;;7.40;99.90;;;;;;5090891;28;20275;-43